Time;durP1;ratioP1;P1;durP2;ratioP2;P2;SDS_P1;SDS_P2;PMS_P1;PMS_P2;Temp;Humidity;BMP_temperature;BMP_pressure;BME280_temperature;BME280_humidity;BME280_pressure;Samples;Min_cycle;Max_cycle;Signal;HPM_P1;HPM_P2
2022/09/27 00:01:09;;;;;;;6.95;1.88;;;;;;;13.77;78.05;99870.00;6277913;22;20023;-64
2022/09/27 00:03:37;;;;;;;7.57;2.13;;;;;;;14.03;78.97;99868.31;6279292;22;20020;-64
2022/09/27 00:06:11;;;;;;;11.18;2.65;;;;;;;14.13;81.59;99864.19;6278417;22;20031;-65
2022/09/27 00:08:38;;;;;;;9.70;2.30;;;;;;;14.65;79.92;99867.47;6278748;22;20023;-64
2022/09/27 00:11:09;;;;;;;8.20;1.90;;;;;;;14.14;73.90;99861.06;6251274;22;20027;-64
2022/09/27 00:13:36;;;;;;;11.27;2.47;;;;;;;13.67;76.88;99865.75;6253200;22;20020;-64
2022/09/27 00:16:04;;;;;;;9.35;2.10;;;;;;;13.94;81.39;99859.38;6278944;22;20011;-64
2022/09/27 00:18:32;;;;;;;10.52;2.30;;;;;;;14.19;79.02;99858.03;6279425;22;20078;-64
2022/09/27 00:21:07;;;;;;;9.98;2.47;;;;;;;14.48;80.39;99854.03;6278970;22;20018;-64
2022/09/27 00:23:35;;;;;;;12.25;2.78;;;;;;;13.74;77.17;99854.88;6252581;22;20023;-64
2022/09/27 00:26:02;;;;;;;10.85;2.13;;;;;;;14.08;82.10;99858.94;6278705;22;20008;-65
2022/09/27 00:28:30;;;;;;;8.05;2.00;;;;;;;14.21;80.80;99866.00;6279505;22;20016;-64
2022/09/27 00:30:58;;;;;;;7.78;1.90;;;;;;;14.18;77.59;99863.94;6278206;22;20024;-64
2022/09/27 00:33:26;;;;;;;10.93;2.25;;;;;;;13.77;76.25;99870.81;6279356;22;20019;-64
2022/09/27 00:35:54;;;;;;;7.55;2.17;;;;;;;14.19;80.53;99879.41;6278966;22;20432;-64
2022/09/27 00:38:21;;;;;;;9.75;2.22;;;;;;;14.43;80.14;99882.00;6279148;22;20021;-65
2022/09/27 00:40:48;;;;;;;9.15;1.83;;;;;;;14.82;79.26;99883.72;6278700;22;20015;-64
2022/09/27 00:43:18;;;;;;;13.38;2.25;;;;;;;14.42;75.34;99889.50;6279210;22;20114;-63
2022/09/27 00:45:52;;;;;;;9.02;2.20;;;;;;;14.53;76.67;99878.69;6278635;22;20022;-63
2022/09/27 00:48:22;;;;;;;10.68;2.42;;;;;;;14.36;76.68;99888.19;6278591;22;20020;-64
2022/09/27 00:50:49;;;;;;;;;;;;;;;13.52;79.09;99881.19;6251812;22;20019;-64
2022/09/27 00:53:22;;;;;;;9.73;2.30;;;;;;;13.85;80.50;99893.91;6279330;22;19921;-65
2022/09/27 00:55:59;;;;;;;11.82;2.20;;;;;;;14.12;81.39;99888.31;6251044;22;20019;-63
2022/09/27 00:58:33;;;;;;;12.60;2.60;;;;;;;14.31;79.56;99888.44;6251563;22;20027;-63
2022/09/27 01:01:05;;;;;;;11.50;2.53;;;;;;;14.48;79.68;99893.63;6250209;22;20019;-64
2022/09/27 01:03:42;;;;;;;11.35;2.40;;;;;;;14.59;79.54;99897.44;6251863;22;20027;-64
2022/09/27 01:06:09;;;;;;;11.60;2.40;;;;;;;14.56;76.17;99902.91;6251696;22;20016;-64
2022/09/27 01:08:37;;;;;;;11.90;3.33;;;;;;;13.89;76.58;99911.44;6251523;22;20016;-64
2022/09/27 01:11:18;;;;;;;11.68;2.60;;;;;;;13.66;76.49;99913.16;6251061;22;20019;-65
2022/09/27 01:14:23;;;;;;;13.52;2.63;;;;;;;13.69;81.90;99902.19;6279164;22;20026;-64
2022/09/27 01:17:09;;;;;;;14.48;2.50;;;;;;;14.16;82.09;99905.03;6247186;22;20115;-64
2022/09/27 01:19:58;;;;;;;12.05;2.55;;;;;;;13.37;78.63;99904.06;6226229;22;20030;-64
2022/09/27 01:22:39;;;;;;;10.27;2.00;;;;;;;13.90;82.10;99904.72;6277696;22;20019;-64
2022/09/27 01:25:48;;;;;;;7.22;2.05;;;;;;;13.90;81.15;99910.28;6277871;22;20020;-65
2022/09/27 01:28:19;;;;;;;10.20;2.33;;;;;;;13.96;78.02;99898.59;6195925;22;20030;-63
2022/09/27 01:30:56;;;;;;;8.68;1.60;;;;;;;13.52;80.44;99917.16;6249496;22;20019;-64
2022/09/27 01:33:44;;;;;;;9.63;2.15;;;;;;;13.99;82.94;99910.91;6251225;22;20019;-65
2022/09/27 01:36:19;;;;;;;10.35;2.17;;;;;;;13.47;76.41;99917.41;6251082;22;20023;-64
2022/09/27 01:38:55;;;;;;;10.55;2.42;;;;;;;13.16;80.92;99916.47;6251040;22;20035;-64
2022/09/27 01:41:47;;;;;;;11.02;2.30;;;;;;;13.80;83.99;99910.78;6250483;22;20020;-64
2022/09/27 01:44:34;;;;;;;9.60;2.35;;;;;;;14.02;82.02;99921.28;6228632;22;20474;-64
2022/09/27 01:47:15;;;;;;;10.57;1.90;;;;;;;13.88;77.29;99915.38;6227026;22;20018;-65
2022/09/27 01:50:19;;;;;;;11.55;2.10;;;;;;;13.38;78.55;99910.41;6227829;22;20022;-64
2022/09/27 01:52:50;;;;;;;14.15;2.30;;;;;;;13.19;80.31;99915.78;6251276;22;20019;-65
2022/09/27 01:55:21;;;;;;;7.95;1.70;;;;;;;12.98;81.86;99907.63;6250697;22;20098;-64
2022/09/27 01:58:15;;;;;;;12.73;1.75;;;;;;;12.80;80.30;99916.50;6228944;22;20026;-64
2022/09/27 02:00:47;;;;;;;8.60;1.98;;;;;;;13.39;82.99;99903.72;6200992;22;20016;-66
2022/09/27 02:03:31;;;;;;;9.48;1.60;;;;;;;13.20;79.02;99914.59;6227717;22;20018;-65
2022/09/27 02:06:29;;;;;;;10.25;1.80;;;;;;;13.21;81.14;99917.06;6255935;22;20015;-65
2022/09/27 02:09:02;;;;;;;10.43;2.08;;;;;;;13.73;84.29;99919.72;6250634;22;20042;-64
2022/09/27 02:11:56;;;;;;;8.80;2.13;;;;;;;13.72;81.91;99920.84;6277330;22;20015;-65
2022/09/27 02:14:34;;;;;;;11.15;2.20;;;;;;;13.18;78.91;99914.97;6250604;22;20340;-64
2022/09/27 02:17:20;;;;;;;9.40;2.13;;;;;;;13.46;83.97;99914.97;6250554;22;20015;-64
2022/09/27 02:20:04;;;;;;;13.52;1.95;;;;;;;13.95;81.69;99910.00;6251875;22;20016;-64
2022/09/27 02:22:55;;;;;;;7.35;2.08;;;;;;;14.04;79.48;99905.91;6250244;22;20016;-64
2022/09/27 02:25:45;;;;;;;6.07;1.60;;;;;;;14.29;78.51;99899.09;6250443;22;20026;-64
2022/09/27 02:28:21;;;;;;;10.68;1.90;;;;;;;13.61;77.60;99894.06;6250134;22;20456;-64
2022/09/27 02:30:49;;;;;;;8.80;1.90;;;;;;;13.65;77.88;99904.06;6225328;22;20341;-64
2022/09/27 02:33:48;;;;;;;10.82;1.95;;;;;;;13.76;83.29;99904.34;6227265;22;20034;-63
2022/09/27 02:36:16;;;;;;;10.70;1.90;;;;;;;13.78;77.35;99902.03;6201135;22;20016;-64
2022/09/27 02:38:43;;;;;;;17.42;1.83;;;;;;;13.60;80.80;99911.84;6250997;22;20447;-64
2022/09/27 02:41:14;;;;;;;12.18;2.03;;;;;;;14.17;80.65;99906.66;6250187;22;20024;-62
2022/09/27 02:43:44;;;;;;;8.75;2.03;;;;;;;14.00;79.21;99907.78;6250759;22;20122;-63
2022/09/27 02:46:36;;;;;;;8.67;2.00;;;;;;;13.93;80.67;99907.59;6250629;22;20043;-64
2022/09/27 02:49:12;;;;;;;9.82;1.65;;;;;;;14.18;80.86;99897.16;6250797;22;20012;-63
2022/09/27 02:52:11;;;;;;;9.90;1.55;;;;;;;13.78;77.37;99902.84;6277188;22;20020;-64
2022/09/27 02:54:49;;;;;;;4.70;1.40;;;;;;;13.67;82.43;99900.97;6250030;22;20351;-63
2022/09/27 02:58:01;;;;;;;8.63;1.77;;;;;;;13.73;83.12;99913.38;6240675;22;20019;-63
2022/09/27 03:01:04;;;;;;;8.05;1.40;;;;;;;14.21;80.45;99902.78;6250747;22;20024;-64
2022/09/27 03:03:56;;;;;;;9.55;1.95;;;;;;;14.00;77.46;99901.47;6230274;22;20011;-64
2022/09/27 03:06:24;;;;;;;11.43;1.40;;;;;;;14.03;80.69;99906.28;6250025;22;20046;-64
2022/09/27 03:08:52;;;;;;;10.25;1.83;;;;;;;14.14;80.58;99907.38;6225949;22;20019;-65
2022/09/27 03:11:19;;;;;;;9.30;1.75;;;;;;;13.96;78.97;99901.38;6250183;22;20015;-64
2022/09/27 03:13:46;;;;;;;8.43;1.85;;;;;;;14.19;78.15;99905.13;6251746;22;20015;-64
2022/09/27 03:16:36;;;;;;;5.43;1.55;;;;;;;14.60;78.95;99895.47;6224388;22;20016;-64
2022/09/27 03:19:16;;;;;;;7.82;1.60;;;;;;;14.65;77.82;99901.56;6250590;22;20019;-64
2022/09/27 03:22:02;;;;;;;9.60;1.90;;;;;;;14.54;77.52;99888.59;6279174;22;20016;-63
2022/09/27 03:24:29;;;;;;;11.82;1.92;;;;;;;14.40;78.91;99893.81;6226587;22;20015;-62
2022/09/27 03:26:56;;;;;;;12.98;2.13;;;;;;;14.56;77.01;99897.34;6252424;22;20020;-64
2022/09/27 03:29:24;;;;;;;8.02;1.60;;;;;;;14.59;77.96;99891.13;6250771;22;20050;-64
2022/09/27 03:32:00;;;;;;;8.02;1.80;;;;;;;14.81;77.78;99893.22;6228316;22;20323;-64
2022/09/27 03:34:46;;;;;;;9.18;1.65;;;;;;;14.15;76.24;99887.63;6280100;22;20020;-63
2022/09/27 03:37:13;;;;;;;5.88;1.45;;;;;;;14.54;78.86;99892.19;6279414;22;20012;-63
2022/09/27 03:39:40;;;;;;;8.18;2.13;;;;;;;14.71;77.22;99898.50;6279606;22;20459;-64
2022/09/27 03:42:08;;;;;;;6.38;1.20;;;;;;;14.64;76.74;99891.63;6226068;22;20031;-63
2022/09/27 03:44:37;;;;;;;6.55;1.70;;;;;;;14.43;78.40;99907.75;6252504;22;20486;-63
2022/09/27 03:47:05;;;;;;;9.70;1.85;;;;;;;14.65;77.14;99897.97;6252128;22;20027;-64
2022/09/27 03:49:32;;;;;;;8.57;2.15;;;;;;;14.80;77.03;99899.94;6226779;22;20030;-64
2022/09/27 03:52:00;;;;;;;8.93;1.73;;;;;;;14.43;78.38;99901.41;6279712;22;20449;-64
2022/09/27 03:54:27;;;;;;;9.82;1.65;;;;;;;14.61;77.75;99899.84;6252273;22;20020;-64
2022/09/27 03:56:54;;;;;;;9.05;2.08;;;;;;;14.54;76.31;99889.41;6262334;22;20089;-64
2022/09/27 03:59:22;;;;;;;9.90;2.38;;;;;;;14.66;77.29;99889.28;6252066;22;20048;-65
2022/09/27 04:02:21;;;;;;;9.05;2.15;;;;;;;14.68;77.92;99899.22;6277944;22;20019;-62
2022/09/27 04:05:08;;;;;;;10.35;2.67;;;;;;;14.62;76.98;99882.88;6279908;22;20024;-64
2022/09/27 04:07:36;;;;;;;9.05;1.80;;;;;;;14.34;75.32;99881.38;6262068;22;20015;-64
2022/09/27 04:10:05;;;;;;;8.48;2.03;;;;;;;14.33;78.19;99888.09;6251910;22;20020;-64
2022/09/27 04:12:34;;;;;;;;;;;;;;;14.17;78.74;99887.25;6251153;22;20039;-61
2022/09/27 04:15:01;;;;;;;9.77;1.60;;;;;;;14.01;80.37;99883.69;6252277;22;19915;-59
2022/09/27 04:17:47;;;;;;;7.18;1.30;;;;;;;14.20;77.98;99878.22;6279374;22;20012;-61
2022/09/27 04:20:37;;;;;;;9.23;1.95;;;;;;;13.80;76.14;99872.03;6235531;22;20338;-62
2022/09/27 04:23:11;;;;;;;10.48;1.80;;;;;;;13.95;78.03;99874.00;6226097;22;20023;-61
2022/09/27 04:25:42;;;;;;;11.68;1.67;;;;;;;13.43;78.00;99883.31;6251597;22;20016;-62
2022/09/27 04:28:30;;;;;;;10.73;1.38;;;;;;;13.71;81.91;99876.94;6230079;22;20020;-61
2022/09/27 04:30:58;;;;;;;7.50;1.42;;;;;;;14.08;80.46;99872.78;6251649;22;20454;-62
2022/09/27 04:33:47;;;;;;;9.27;1.70;;;;;;;13.37;78.69;99887.47;6250594;22;20451;-61
2022/09/27 04:36:27;;;;;;;8.43;1.80;;;;;;;13.21;82.02;99869.22;6251189;22;20020;-61
2022/09/27 04:39:08;;;;;;;8.63;2.05;;;;;;;13.43;80.14;99876.97;6262378;22;20029;-61
2022/09/27 04:41:39;;;;;;;7.47;1.45;;;;;;;12.72;79.90;99876.00;6250198;22;20024;-62
2022/09/27 04:44:07;;;;;;;9.43;1.80;;;;;;;13.02;83.55;99874.59;6251665;22;20402;-61
2022/09/27 04:46:34;;;;;;;9.25;1.48;;;;;;;13.09;82.24;99870.06;6251259;22;20023;-61
2022/09/27 04:49:02;;;;;;;7.32;1.27;;;;;;;13.27;83.92;99870.56;6251967;22;20016;-62
2022/09/27 04:51:31;;;;;;;8.50;1.73;;;;;;;13.60;81.30;99865.56;6260075;22;20038;-61
2022/09/27 04:53:59;;;;;;;7.28;1.45;;;;;;;13.92;82.43;99866.44;6251997;22;20342;-60
2022/09/27 04:56:29;;;;;;;;;;;;;;;13.99;82.14;99878.50;6227437;22;20466;-60
2022/09/27 04:58:57;;;;;;;9.07;1.55;;;;;;;13.54;77.31;99876.13;6279361;22;20318;-60
2022/09/27 05:01:25;;;;;;;10.35;1.75;;;;;;;13.60;83.43;99868.34;6251616;22;20597;-61
2022/09/27 05:03:58;;;;;;;9.35;1.70;;;;;;;13.93;82.01;99873.59;6251681;22;20019;-61
2022/09/27 05:06:27;;;;;;;7.47;1.80;;;;;;;14.14;81.73;99877.69;6247632;22;20329;-61
2022/09/27 05:08:58;;;;;;;9.68;1.75;;;;;;;13.79;77.55;99881.53;6226278;22;20019;-61
2022/09/27 05:11:27;;;;;;;9.27;1.70;;;;;;;13.96;82.21;99878.41;6251177;22;20175;-60
2022/09/27 05:14:13;;;;;;;8.32;1.60;;;;;;;13.70;78.61;99869.81;6279203;22;20012;-61
2022/09/27 05:16:59;;;;;;;7.35;1.33;;;;;;;13.62;78.09;99873.50;6249549;22;20023;-60
2022/09/27 05:19:29;;;;;;;10.13;1.52;;;;;;;13.49;79.73;99879.13;6279099;22;20015;-61
2022/09/27 05:22:16;;;;;;;15.43;2.03;;;;;;;12.61;82.03;99889.47;6251281;22;20019;-61
2022/09/27 05:24:44;;;;;;;10.80;2.30;;;;;;;13.17;84.87;99882.94;6251552;22;20022;-61
2022/09/27 05:27:17;;;;;;;12.75;2.05;;;;;;;12.89;82.11;99889.53;6251014;22;20026;-63
2022/09/27 05:29:47;;;;;;;18.05;2.17;;;;;;;12.83;84.29;99890.97;6251763;22;20033;-63
2022/09/27 05:32:20;;;;;;;11.88;1.92;;;;;;;13.18;83.91;99878.22;6250524;22;20012;-61
2022/09/27 05:34:53;;;;;;;11.43;1.67;;;;;;;13.52;82.48;99881.19;6227568;22;20020;-63
2022/09/27 05:37:20;;;;;;;9.27;1.83;;;;;;;13.20;80.08;99885.00;6251428;22;20025;-62
2022/09/27 05:39:48;;;;;;;11.18;2.47;;;;;;;13.15;82.76;99888.03;6251314;22;20396;-62
2022/09/27 05:42:17;;;;;;;8.82;1.95;;;;;;;12.75;84.09;99886.34;6251104;22;20023;-61
2022/09/27 05:44:48;;;;;;;10.02;2.17;;;;;;;12.86;84.96;99890.25;6225367;22;20035;-60
2022/09/27 05:47:15;;;;;;;11.15;2.33;;;;;;;13.53;85.89;99896.63;6251072;22;20019;-61
2022/09/27 05:49:43;;;;;;;9.05;2.10;;;;;;;13.12;82.24;99888.72;6251146;22;20447;-61
2022/09/27 05:52:11;;;;;;;8.68;1.75;;;;;;;13.45;84.94;99886.53;6250848;22;20419;-61
2022/09/27 05:54:44;;;;;;;13.20;2.35;;;;;;;13.39;83.52;99878.81;6225388;22;20015;-61
2022/09/27 05:57:13;;;;;;;9.70;1.80;;;;;;;13.03;81.08;99890.81;6249555;22;20026;-65
2022/09/27 05:59:47;;;;;;;12.88;2.20;;;;;;;13.40;84.77;99877.69;6278674;22;20569;-64
2022/09/27 06:02:35;;;;;;;12.57;2.00;;;;;;;13.22;80.37;99882.69;6255832;22;20126;-65
2022/09/27 06:05:21;;;;;;;9.15;1.55;;;;;;;13.44;81.34;99882.13;6278957;22;20015;-65
2022/09/27 06:08:09;;;;;;;10.93;2.35;;;;;;;13.65;80.98;99878.38;6278993;22;20050;-65
2022/09/27 06:10:42;;;;;;;9.45;1.92;;;;;;;13.64;78.65;99873.97;6248776;22;20023;-64
2022/09/27 06:13:12;;;;;;;11.23;1.83;;;;;;;13.79;81.75;99875.97;6251375;22;20015;-64
2022/09/27 06:15:43;;;;;;;9.90;1.67;;;;;;;13.46;78.86;99877.06;6250028;22;20024;-63
2022/09/27 06:18:15;;;;;;;7.68;1.80;;;;;;;13.39;82.89;99892.66;6275519;22;20125;-64
2022/09/27 06:20:43;;;;;;;6.93;1.83;;;;;;;13.83;84.46;99877.69;6248830;22;20016;-64
2022/09/27 06:23:14;;;;;;;10.50;1.67;;;;;;;14.31;80.56;99884.88;6247549;22;20016;-63
2022/09/27 06:25:42;;;;;;;9.15;2.00;;;;;;;13.89;77.58;99881.00;6248940;22;20023;-65
2022/09/27 06:28:31;;;;;;;11.20;2.50;;;;;;;13.52;81.28;99883.97;6247170;22;20020;-65
2022/09/27 06:31:01;;;;;;;12.82;2.25;;;;;;;13.69;83.19;99888.38;6248573;22;20024;-64
2022/09/27 06:33:45;;;;;;;9.40;1.60;;;;;;;14.87;77.19;99877.88;6249806;22;20030;-67
2022/09/27 06:36:13;;;;;;;13.38;2.03;;;;;;;15.03;72.49;99877.84;6246087;22;20019;-65
2022/09/27 06:38:47;;;;;;;11.70;1.65;;;;;;;15.14;70.35;99871.34;6249275;22;20023;-64
2022/09/27 06:41:19;;;;;;;11.93;2.50;;;;;;;15.17;70.85;99878.94;6224067;22;20327;-65
2022/09/27 06:44:05;;;;;;;11.63;2.42;;;;;;;14.96;71.12;99884.03;6247494;22;20020;-64
2022/09/27 06:46:41;;;;;;;10.77;1.95;;;;;;;14.68;71.46;99877.06;6274637;22;20012;-65
2022/09/27 06:49:24;;;;;;;11.57;2.10;;;;;;;13.90;75.20;99883.41;6249287;22;20016;-65
2022/09/27 06:51:52;;;;;;;10.82;2.55;;;;;;;14.14;76.83;99879.69;6246270;22;20035;-66
2022/09/27 06:54:21;;;;;;;10.40;2.53;;;;;;;13.51;76.84;99882.34;6246820;22;20130;-65
2022/09/27 06:56:48;;;;;;;12.23;2.08;;;;;;;13.65;79.27;99889.44;6250120;22;20026;-66
2022/09/27 07:02:21;;;;;;;9.00;2.17;;;;;;;13.46;78.12;99893.66;6277464;22;20079;-66
2022/09/27 07:05:09;;;;;;;10.68;1.58;;;;;;;13.24;80.05;99893.41;6276580;22;20470;-66
2022/09/27 07:08:04;;;;;;;11.98;2.10;;;;;;;13.20;81.00;99889.72;6272188;22;20027;-67
2022/09/27 07:10:35;;;;;;;6.68;1.88;;;;;;;13.42;79.89;99903.03;6225367;22;20527;-65
2022/09/27 07:13:07;;;;;;;10.35;1.70;;;;;;;13.30;79.60;99900.31;6224724;22;20020;-65
2022/09/27 07:15:39;;;;;;;8.82;1.73;;;;;;;13.31;80.57;99899.13;6224799;22;20023;-65
2022/09/27 07:18:11;;;;;;;8.13;1.40;;;;;;;13.24;81.94;99907.22;6250514;22;20016;-65
2022/09/27 07:20:38;;;;;;;8.93;2.08;;;;;;;13.62;81.58;99907.53;6226178;22;20023;-65
2022/09/27 07:23:07;;;;;;;10.85;1.92;;;;;;;13.51;79.10;99918.31;6249469;22;20035;-64
2022/09/27 07:25:35;;;;;;;11.50;2.05;;;;;;;13.71;80.58;99915.69;6249762;22;20039;-67
2022/09/27 07:28:08;;;;;;;11.75;2.13;;;;;;;13.74;78.55;99906.69;6251053;22;20030;-64
2022/09/27 07:30:36;;;;;;;8.48;1.90;;;;;;;13.72;79.67;99912.56;6225188;22;20647;-65
2022/09/27 07:33:05;;;;;;;11.93;2.00;;;;;;;13.53;78.35;99921.53;6250797;22;20027;-65
2022/09/27 07:35:32;;;;;;;12.27;2.13;;;;;;;13.27;80.42;99921.16;6277611;22;20028;-65
2022/09/27 07:38:00;;;;;;;11.52;2.50;;;;;;;13.35;81.32;99928.50;6276785;22;20024;-66
2022/09/27 07:40:28;;;;;;;7.97;1.77;;;;;;;13.82;79.33;99922.31;6250287;22;20445;-65
2022/09/27 07:42:56;;;;;;;8.30;1.80;;;;;;;14.01;78.63;99937.09;6277683;22;20564;-65
2022/09/27 07:45:25;;;;;;;10.98;2.17;;;;;;;13.34;78.86;99929.66;6249726;22;20020;-66
2022/09/27 07:48:14;;;;;;;11.00;2.00;;;;;;;13.44;80.42;99942.22;6277413;22;20019;-65
2022/09/27 07:51:03;;;;;;;9.10;1.77;;;;;;;13.31;80.10;99943.41;6271286;22;20027;-65
2022/09/27 07:53:49;;;;;;;9.38;1.50;;;;;;;13.52;81.73;99953.13;6230163;22;20027;-65
2022/09/27 07:56:54;;;;;;;6.32;1.38;;;;;;;13.63;80.46;99949.84;6277232;22;20046;-65
2022/09/27 07:59:21;;;;;;;6.67;1.47;;;;;;;13.72;79.77;99950.53;6250913;22;20456;-67
2022/09/27 08:01:49;;;;;;;6.65;1.80;;;;;;;13.55;79.08;99960.72;6248473;22;20022;-66
2022/09/27 08:04:16;;;;;;;8.88;2.00;;;;;;;13.73;79.36;99955.69;6248908;22;20032;-65
2022/09/27 08:06:44;;;;;;;7.00;1.77;;;;;;;13.98;79.21;99953.63;6248855;22;20027;-65
2022/09/27 08:09:11;;;;;;;9.27;1.60;;;;;;;13.94;78.90;99970.13;6249879;22;20026;-65
2022/09/27 08:11:40;;;;;;;11.17;1.73;;;;;;;14.10;78.23;99962.66;6250045;22;20016;-64
2022/09/27 08:14:09;;;;;;;7.18;2.00;;;;;;;14.41;75.70;99971.03;6277480;22;20020;-64
2022/09/27 08:16:40;;;;;;;6.40;1.60;;;;;;;13.86;77.40;99976.63;6276049;22;20020;-65
2022/09/27 08:19:32;;;;;;;8.15;1.98;;;;;;;14.17;78.71;99967.59;6249105;22;20020;-65
2022/09/27 08:22:41;;;;;;;9.80;1.90;;;;;;;14.29;76.33;99973.06;6212388;23;20025;-64
2022/09/27 08:25:23;;;;;;;7.80;1.60;;;;;;;14.44;77.20;99966.72;6245686;22;20030;-65
2022/09/27 08:28:05;;;;;;;6.20;1.40;;;;;;;14.29;76.15;99967.53;6250817;22;20023;-65
2022/09/27 08:30:58;;;;;;;9.77;1.80;;;;;;;14.51;76.66;99966.91;6250552;22;20020;-65
2022/09/27 08:33:25;;;;;;;6.53;1.80;;;;;;;14.52;74.96;99969.31;6250229;22;20024;-65
2022/09/27 08:36:00;;;;;;;8.85;1.45;;;;;;;14.28;75.82;99971.44;6248960;22;20020;-65
2022/09/27 08:38:28;;;;;;;10.87;2.40;;;;;;;14.20;76.93;99976.00;6249683;22;20050;-64
2022/09/27 08:41:28;;;;;;;8.30;1.63;;;;;;;14.36;77.72;99981.56;6249571;22;20443;-65
2022/09/27 08:44:17;;;;;;;14.45;2.13;;;;;;;14.33;77.79;99983.06;6267246;22;20498;-65
2022/09/27 08:47:10;;;;;;;10.30;1.77;;;;;;;14.27;75.14;99984.53;6250224;22;20020;-65
2022/09/27 08:49:42;;;;;;;8.57;1.85;;;;;;;14.68;77.31;99994.25;6225418;22;20035;-65
2022/09/27 08:52:18;;;;;;;7.63;1.83;;;;;;;14.38;74.57;99999.44;6249259;22;20467;-66
2022/09/27 08:54:47;;;;;;;9.13;2.20;;;;;;;13.89;76.73;99995.31;6199313;22;20023;-65
2022/09/27 08:57:16;;;;;;;11.07;2.80;;;;;;;14.31;78.28;99993.72;6250467;22;20020;-65
2022/09/27 08:59:56;;;;;;;8.13;1.63;;;;;;;14.35;75.60;99988.25;6225566;22;20022;-65
2022/09/27 09:02:25;;;;;;;10.38;2.53;;;;;;;14.50;77.14;99981.94;6248749;22;20030;-66
2022/09/27 09:04:57;;;;;;;7.95;1.67;;;;;;;14.79;75.71;99984.25;6223588;22;20026;-64
2022/09/27 09:07:47;;;;;;;6.07;2.20;;;;;;;14.55;75.08;99982.50;6276630;22;20030;-66
2022/09/27 09:13:59;;;;;;;8.15;1.70;;;;;;;15.29;71.46;99987.00;6247676;22;20023;-66
2022/09/27 09:16:46;;;;;;;8.73;2.22;;;;;;;15.03;72.21;99995.13;6248827;22;20020;-65
2022/09/27 09:19:22;;;;;;;6.53;1.90;;;;;;;14.74;72.54;99995.63;6249822;22;20611;-65
2022/09/27 09:22:18;;;;;;;10.18;2.33;;;;;;;14.43;73.84;99981.75;6271456;22;20020;-66
2022/09/27 09:24:59;;;;;;;8.60;1.90;;;;;;;14.44;73.24;99988.91;6250241;22;20502;-66
2022/09/27 09:27:43;;;;;;;7.68;1.88;;;;;;;14.67;75.02;99981.56;6248776;22;20039;-65
2022/09/27 09:30:18;;;;;;;6.90;1.50;;;;;;;14.62;72.32;99979.06;6249008;22;20022;-65
2022/09/27 09:32:58;;;;;;;10.40;2.10;;;;;;;14.53;73.71;99978.44;6245865;22;20042;-66
2022/09/27 09:35:33;;;;;;;10.60;1.83;;;;;;;14.79;74.00;99977.88;6249908;22;20033;-65
2022/09/27 09:38:05;;;;;;;21.45;2.45;;;;;;;14.96;71.94;99974.75;6225283;22;20069;-66
2022/09/27 09:40:48;;;;;;;26.83;3.03;;;;;;;14.85;71.27;99974.50;6247450;22;20012;-65
2022/09/27 09:43:22;;;;;;;13.25;1.80;;;;;;;14.41;72.60;99961.91;6198224;22;20459;-66
2022/09/27 09:46:01;;;;;;;12.77;1.80;;;;;;;14.95;73.80;99964.81;6249570;22;20023;-65
2022/09/27 09:48:28;;;;;;;12.48;1.88;;;;;;;15.51;71.59;99950.28;6232754;22;20020;-66
2022/09/27 09:51:00;;;;;;;19.65;3.47;;;;;;;14.94;69.50;99952.91;6276093;22;20027;-65
2022/09/27 09:53:39;;;;;;;10.85;2.55;;;;;;;15.22;69.77;99944.47;6258832;22;20026;-69
2022/09/27 09:56:20;;;;;;;8.25;1.80;;;;;;;15.27;68.89;99944.16;6249264;22;20019;-66
2022/09/27 09:58:57;;;;;;;6.10;1.73;;;;;;;15.43;68.78;99933.84;6224769;22;20019;-65
2022/09/27 10:01:41;;;;;;;10.80;1.73;;;;;;;15.58;69.13;99925.44;6249344;22;20075;-65
2022/09/27 10:04:18;;;;;;;7.20;1.63;;;;;;;15.51;65.86;99921.72;6250006;22;20016;-66
2022/09/27 10:06:47;;;;;;;10.45;2.30;;;;;;;15.64;68.22;99917.59;6249402;22;20027;-65
2022/09/27 10:09:21;;;;;;;7.20;2.00;;;;;;;15.76;66.05;99921.03;6275680;22;20030;-65
2022/09/27 10:12:09;;;;;;;10.70;1.67;;;;;;;16.07;66.09;99920.03;6273826;22;20054;-66
2022/09/27 10:14:37;;;;;;;10.35;2.30;;;;;;;16.07;64.81;99911.72;6223589;22;20023;-66
2022/09/27 10:17:09;;;;;;;10.63;2.70;;;;;;;16.27;63.65;99906.88;6275380;22;20029;-66
2022/09/27 10:19:38;;;;;;;9.23;2.38;;;;;;;16.33;64.06;99910.97;6222820;22;20025;-66
2022/09/27 10:22:15;;;;;;;9.75;2.42;;;;;;;16.46;62.91;99910.44;6276162;22;20019;-66
2022/09/27 10:24:55;;;;;;;10.35;2.63;;;;;;;16.02;63.61;99898.13;6247533;22;20046;-66
2022/09/27 10:27:47;;;;;;;11.73;2.85;;;;;;;16.19;64.49;99905.16;6248240;22;20652;-65
2022/09/27 10:30:35;;;;;;;12.32;3.45;;;;;;;16.43;63.37;99904.78;6200118;22;20024;-66
2022/09/27 10:33:15;;;;;;;7.72;2.22;;;;;;;16.45;64.31;99910.78;6249834;22;20023;-66
2022/09/27 10:35:48;;;;;;;5.93;2.05;;;;;;;15.88;66.06;99913.72;6249138;22;20016;-66
2022/09/27 10:38:35;;;;;;;8.48;2.67;;;;;;;15.92;67.89;99917.38;6245284;22;20030;-66
2022/09/27 10:41:31;;;;;;;8.85;2.85;;;;;;;15.90;68.95;99926.03;6224109;22;20019;-65
2022/09/27 10:44:15;;;;;;;7.72;2.92;;;;;;;15.68;70.29;99932.38;6250051;22;20020;-65
2022/09/27 10:46:50;;;;;;;12.10;6.05;;;;;;;15.69;70.71;99934.78;6248132;22;20020;-64
2022/09/27 10:49:41;;;;;;;7.05;2.53;;;;;;;15.52;71.41;99938.00;6253492;22;20024;-64
2022/09/27 10:52:29;;;;;;;8.00;3.30;;;;;;;15.82;71.15;99923.50;6247925;22;20281;-65
2022/09/27 10:55:00;;;;;;;12.15;2.78;;;;;;;15.68;71.53;99940.69;6247713;22;20042;-64
2022/09/27 10:57:28;;;;;;;11.80;2.85;;;;;;;15.90;70.90;99936.38;6249142;22;20313;-63
2022/09/27 11:00:06;;;;;;;8.75;2.60;;;;;;;15.70;71.15;99930.84;6223651;22;20026;-64
2022/09/27 11:02:36;;;;;;;8.73;2.50;;;;;;;15.41;71.99;99939.75;6222758;22;20023;-64
2022/09/27 11:05:14;;;;;;;10.15;2.83;;;;;;;15.11;72.82;99941.44;6248252;22;20028;-64
2022/09/27 11:08:01;;;;;;;11.00;2.70;;;;;;;15.06;73.04;99938.97;6250426;22;20024;-63
2022/09/27 11:10:41;;;;;;;9.05;2.97;;;;;;;15.10;74.22;99948.13;6248501;22;20020;-64
2022/09/27 11:13:17;;;;;;;9.23;2.40;;;;;;;14.97;73.33;99941.13;6249812;22;20034;-65
2022/09/27 11:16:27;;;;;;;14.23;3.60;;;;;;;15.28;73.21;99915.25;6249667;22;20035;-64
2022/09/27 11:19:13;;;;;;;13.27;3.30;;;;;;;15.03;72.60;99925.78;6248468;22;20031;-63
2022/09/27 11:22:19;;;;;;;8.45;2.53;;;;;;;15.41;72.90;99917.53;6248482;22;20019;-64
2022/09/27 11:25:13;;;;;;;8.43;2.63;;;;;;;15.31;72.60;99923.63;6250094;22;20034;-64
2022/09/27 11:28:34;;;;;;;8.73;2.05;;;;;;;15.69;71.83;99932.00;6194828;22;20034;-65
2022/09/27 11:31:21;;;;;;;5.97;1.83;;;;;;;15.51;72.03;99922.53;6224796;22;20016;-64
2022/09/27 11:34:17;;;;;;;11.45;2.80;;;;;;;15.13;71.78;99936.31;6249616;22;20043;-64
2022/09/27 11:37:06;;;;;;;8.20;2.00;;;;;;;14.67;73.56;99937.22;6249220;22;20020;-63
2022/09/27 11:39:59;;;;;;;8.52;2.22;;;;;;;14.83;74.15;99934.44;6246730;22;20023;-65
2022/09/27 11:43:05;;;;;;;8.63;2.13;;;;;;;14.52;72.16;99926.97;6248786;22;20034;-64
2022/09/27 11:45:44;;;;;;;11.60;3.22;;;;;;;15.02;73.25;99932.50;6249078;22;20023;-64
2022/09/27 11:49:04;;;;;;;11.27;2.70;;;;;;;15.28;70.98;99921.59;6249584;22;20019;-63
2022/09/27 11:51:40;;;;;;;8.35;2.33;;;;;;;14.77;72.36;99916.47;6218821;22;20019;-63
2022/09/27 11:54:32;;;;;;;10.45;3.72;;;;;;;14.71;73.52;99904.03;6249911;22;20024;-64
2022/09/27 11:57:25;;;;;;;8.63;2.47;;;;;;;15.21;72.63;99902.03;6249955;22;20027;-64
2022/09/27 12:00:15;;;;;;;11.55;4.38;;;;;;;15.39;72.60;99903.22;6253257;22;20039;-64
2022/09/27 12:02:59;;;;;;;16.08;3.38;;;;;;;15.59;72.26;99895.69;6249498;22;20016;-65
2022/09/27 12:05:40;;;;;;;20.15;2.95;;;;;;;15.80;71.71;99896.09;6249785;22;20026;-64
2022/09/27 12:08:29;;;;;;;13.07;1.92;;;;;;;15.08;72.03;99892.22;6249338;22;20019;-64
2022/09/27 12:11:11;;;;;;;9.63;2.58;;;;;;;14.94;74.80;99903.00;6277630;22;20026;-64
2022/09/27 12:13:43;;;;;;;13.90;3.20;;;;;;;14.89;74.86;99900.50;6247007;22;20046;-63
2022/09/27 12:16:12;;;;;;;14.25;4.03;;;;;;;15.33;74.53;99876.09;6259852;22;20020;-64
2022/09/27 12:18:40;;;;;;;17.65;5.60;;;;;;;15.52;73.45;99878.91;6224840;22;20020;-64
2022/09/27 12:21:24;;;;;;;13.68;3.90;;;;;;;15.78;73.08;99877.03;6249206;22;20132;-64
2022/09/27 12:23:56;;;;;;;10.50;2.95;;;;;;;15.63;73.38;99871.59;6224075;22;20046;-63